Time;durP1;ratioP1;P1;durP2;ratioP2;P2;SDS_P1;SDS_P2;PMS_P1;PMS_P2;Temp;Humidity;BMP_temperature;BMP_pressure;BME280_temperature;BME280_humidity;BME280_pressure;Samples;Min_cycle;Max_cycle;Signal;HPM_P1;HPM_P2
2020/12/21 00:01:56;;;;;;;19.40;3.75;;;11.60;99.90;;;;;;5119290;28;20024;-69
2020/12/21 00:04:22;;;;;;;13.88;2.67;;;11.50;99.90;;;;;;5119633;28;20084;-69
2020/12/21 00:06:58;;;;;;;12.05;3.13;;;11.50;99.90;;;;;;5120606;28;20452;-69
2020/12/21 00:09:25;;;;;;;13.00;2.55;;;11.40;99.90;;;;;;5120355;28;20076;-69
2020/12/21 00:11:51;;;;;;;14.32;3.00;;;11.50;99.90;;;;;;5120541;28;20023;-69
2020/12/21 00:14:18;;;;;;;21.02;3.08;;;11.40;99.90;;;;;;5120392;28;20024;-69
2020/12/21 00:16:46;;;;;;;21.50;3.17;;;11.40;99.90;;;;;;5120585;28;20479;-69
2020/12/21 00:19:13;;;;;;;12.45;2.67;;;11.40;99.90;;;;;;5120246;28;20180;-69
2020/12/21 00:21:40;;;;;;;13.57;2.55;;;11.40;99.90;;;;;;5128473;27;20034;-69
2020/12/21 00:24:07;;;;;;;15.30;2.78;;;11.30;99.90;;;;;;5125182;27;20050;-69
2020/12/21 00:26:33;;;;;;;13.35;2.58;;;11.30;99.90;;;;;;5120416;28;20561;-69
2020/12/21 00:29:00;;;;;;;9.23;2.47;;;11.30;99.90;;;;;;5120210;28;20051;-69
2020/12/21 00:31:28;;;;;;;14.07;2.42;;;11.20;99.90;;;;;;5118784;28;20115;-69
2020/12/21 00:33:55;;;;;;;14.90;3.35;;;11.30;99.90;;;;;;5120091;28;20077;-69
2020/12/21 00:36:21;;;;;;;16.88;2.30;;;11.20;99.90;;;;;;5120129;28;20020;-69
2020/12/21 00:38:48;;;;;;;12.75;4.03;;;11.20;99.90;;;;;;5119828;28;20026;-69
2020/12/21 00:41:16;;;;;;;14.63;2.97;;;11.20;99.90;;;;;;5118767;28;20051;-69
2020/12/21 00:43:45;;;;;;;8.02;2.53;;;11.20;99.90;;;;;;5119874;28;20039;-69
2020/12/21 00:46:19;;;;;;;6.95;2.38;;;11.30;99.90;;;;;;5119924;28;20101;-69
2020/12/21 00:48:45;;;;;;;6.90;1.70;;;11.30;99.90;;;;;;5119832;28;20024;-69
2020/12/21 00:51:12;;;;;;;11.05;1.85;;;11.20;99.90;;;;;;5119822;28;20100;-69
2020/12/21 00:53:39;;;;;;;9.30;3.10;;;11.20;99.90;;;;;;5119571;28;20028;-69
2020/12/21 00:56:06;;;;;;;14.82;2.38;;;11.20;99.90;;;;;;5119794;28;20081;-70
2020/12/21 00:58:35;;;;;;;9.27;1.85;;;11.20;99.90;;;;;;5119442;28;20024;-69
2020/12/21 01:01:03;;;;;;;11.07;2.33;;;11.20;99.90;;;;;;5119691;28;20421;-69
2020/12/21 01:03:29;;;;;;;10.07;2.00;;;11.20;99.90;;;;;;5118186;28;20038;-69
2020/12/21 01:05:55;;;;;;;9.05;2.10;;;11.20;99.90;;;;;;5119684;28;20024;-69
2020/12/21 01:08:21;;;;;;;11.18;2.28;;;11.20;99.90;;;;;;5119092;28;20027;-69
2020/12/21 01:10:47;;;;;;;4.85;1.40;;;11.20;99.90;;;;;;5119418;28;20027;-70
2020/12/21 01:13:13;;;;;;;10.80;1.92;;;11.10;99.90;;;;;;5118669;28;20023;-69
2020/12/21 01:15:39;;;;;;;7.88;1.73;;;11.00;99.90;;;;;;5119391;28;20016;-69
2020/12/21 01:18:05;;;;;;;7.68;1.95;;;11.20;99.90;;;;;;5119100;28;20027;-70
2020/12/21 01:20:30;;;;;;;13.20;2.28;;;11.30;99.90;;;;;;5119258;28;20422;-70
2020/12/21 01:22:56;;;;;;;10.45;2.40;;;11.20;99.90;;;;;;5131551;27;20073;-70
2020/12/21 01:25:22;;;;;;;9.88;2.97;;;11.10;99.90;;;;;;5119263;28;20470;-70
2020/12/21 01:27:48;;;;;;;9.00;1.65;;;11.10;99.90;;;;;;5118788;27;20072;-70
2020/12/21 01:30:14;;;;;;;7.57;1.45;;;11.10;99.90;;;;;;5119197;28;20111;-70
2020/12/21 01:32:39;;;;;;;;;;;11.10;99.90;;;;;;5119134;28;20034;-70
2020/12/21 01:35:05;;;;;;;13.23;2.00;;;11.00;99.90;;;;;;5119193;28;19926;-70
2020/12/21 01:37:31;;;;;;;6.40;1.27;;;11.10;99.90;;;;;;5118833;28;20019;-70
2020/12/21 01:39:57;;;;;;;4.93;1.58;;;11.30;99.90;;;;;;5118839;28;20027;-70
2020/12/21 01:42:23;;;;;;;8.68;1.38;;;11.10;99.90;;;;;;5118739;28;20102;-70
2020/12/21 01:44:49;;;;;;;;;;;11.10;99.90;;;;;;5119123;28;20020;-69
2020/12/21 01:47:16;;;;;;;7.45;1.65;;;11.10;99.90;;;;;;5118764;28;19903;-70
2020/12/21 01:49:42;;;;;;;4.40;1.10;;;11.00;99.90;;;;;;5118896;28;20028;-70
2020/12/21 01:52:09;;;;;;;4.38;0.93;;;11.10;99.90;;;;;;5118444;28;20046;-70
2020/12/21 01:54:35;;;;;;;4.60;1.27;;;11.10;99.90;;;;;;5118504;28;20083;-69
2020/12/21 01:57:02;;;;;;;4.95;0.95;;;11.10;99.90;;;;;;5118490;28;20023;-70
2020/12/21 01:59:28;;;;;;;3.13;1.40;;;11.10;99.90;;;;;;5118534;28;20024;-70
2020/12/21 02:01:54;;;;;;;2.05;0.88;;;11.10;99.90;;;;;;5118459;28;20059;-70
2020/12/21 02:04:20;;;;;;;3.25;1.17;;;11.00;99.90;;;;;;5118569;28;20484;-70
2020/12/21 02:06:47;;;;;;;2.47;0.80;;;11.10;99.90;;;;;;5118467;28;20028;-70
2020/12/21 02:09:12;;;;;;;2.42;0.73;;;11.10;99.90;;;;;;5118320;28;20154;-69
2020/12/21 02:11:43;;;;;;;6.70;1.30;;;11.10;99.90;;;;;;5118216;28;20058;-69
2020/12/21 02:14:10;;;;;;;1.55;0.80;;;11.10;99.90;;;;;;5118216;28;20022;-69
2020/12/21 02:16:36;;;;;;;2.03;0.70;;;11.20;99.90;;;;;;5118590;28;20031;-70
2020/12/21 02:19:03;;;;;;;2.47;0.68;;;11.20;99.90;;;;;;5118103;28;20043;-70
2020/12/21 02:21:29;;;;;;;3.42;1.00;;;11.20;99.90;;;;;;5124840;27;20425;-70
2020/12/21 02:23:55;;;;;;;2.90;0.75;;;11.20;99.90;;;;;;5124222;27;20020;-70
2020/12/21 02:26:22;;;;;;;2.40;0.60;;;11.10;99.90;;;;;;5117234;28;20023;-70
2020/12/21 02:28:51;;;;;;;2.17;0.93;;;11.20;99.90;;;;;;5117943;28;20077;-69
2020/12/21 02:31:18;;;;;;;2.20;0.80;;;11.20;99.90;;;;;;5117996;28;20027;-70
2020/12/21 02:33:45;;;;;;;4.53;1.02;;;11.10;99.90;;;;;;5117762;28;20387;-70
2020/12/21 02:36:11;;;;;;;3.65;0.77;;;11.20;99.90;;;;;;5117967;28;20102;-70
2020/12/21 02:38:37;;;;;;;2.55;0.73;;;11.10;99.90;;;;;;5117752;28;20388;-69
2020/12/21 02:41:03;;;;;;;2.97;0.70;;;11.10;99.90;;;;;;5118001;28;20024;-70
2020/12/21 02:43:29;;;;;;;2.60;1.10;;;11.10;99.90;;;;;;5117659;28;20026;-70
2020/12/21 02:45:55;;;;;;;2.17;0.98;;;11.10;99.90;;;;;;5116548;28;20028;-70
2020/12/21 02:48:21;;;;;;;5.05;1.83;;;11.10;99.90;;;;;;5117865;28;20031;-70
2020/12/21 02:50:47;;;;;;;2.17;0.73;;;11.00;99.90;;;;;;5117814;28;20024;-70
2020/12/21 02:53:14;;;;;;;;;;;11.10;99.90;;;;;;5118005;28;20472;-70
2020/12/21 02:55:40;;;;;;;3.22;0.80;;;11.00;99.90;;;;;;5117850;28;19908;-70
2020/12/21 02:58:06;;;;;;;4.70;1.70;;;11.00;99.90;;;;;;5117626;28;20023;-70
2020/12/21 03:00:34;;;;;;;5.65;0.95;;;11.20;99.90;;;;;;5118033;28;20023;-70
2020/12/21 03:03:01;;;;;;;2.92;1.15;;;10.90;99.90;;;;;;5117849;28;20046;-70
2020/12/21 03:05:26;;;;;;;3.53;0.70;;;11.10;99.90;;;;;;5117800;28;20107;-70
2020/12/21 03:07:52;;;;;;;2.03;0.68;;;11.10;99.90;;;;;;5117387;28;20047;-70
2020/12/21 03:10:18;;;;;;;;;;;11.00;99.90;;;;;;5118044;28;20030;-70
2020/12/21 03:12:44;;;;;;;3.00;0.93;;;11.00;99.90;;;;;;5117429;28;19987;-70
2020/12/21 03:15:10;;;;;;;6.40;1.77;;;11.00;99.90;;;;;;5117932;28;20051;-70
2020/12/21 03:17:35;;;;;;;4.75;1.60;;;11.00;99.90;;;;;;5117531;28;20032;-70
2020/12/21 03:20:02;;;;;;;7.15;1.13;;;11.00;99.90;;;;;;5117394;28;20039;-70
2020/12/21 03:22:27;;;;;;;7.05;1.05;;;11.00;99.90;;;;;;5113214;28;20102;-70
2020/12/21 03:24:53;;;;;;;7.18;1.50;;;10.90;99.90;;;;;;5096998;28;20066;-71
2020/12/21 03:27:19;;;;;;;7.82;1.67;;;11.00;99.90;;;;;;5112539;28;20368;-71
2020/12/21 03:29:45;;;;;;;3.67;1.13;;;11.00;99.90;;;;;;5117420;28;20016;-70
2020/12/21 03:32:10;;;;;;;;;;;11.00;99.90;;;;;;5116326;28;20028;-70
2020/12/21 03:34:36;;;;;;;6.05;1.58;;;11.10;99.90;;;;;;5117417;28;19903;-70
2020/12/21 03:37:02;;;;;;;6.05;1.33;;;11.00;99.90;;;;;;5118755;28;20020;-70
2020/12/21 03:39:28;;;;;;;5.15;1.75;;;11.00;99.90;;;;;;5120977;27;20539;-70
2020/12/21 03:41:54;;;;;;;6.32;1.77;;;11.00;99.90;;;;;;5119798;28;20114;-70
2020/12/21 03:44:20;;;;;;;8.48;1.50;;;11.20;99.90;;;;;;5121291;28;20107;-70
2020/12/21 03:46:45;;;;;;;;;;;11.10;99.90;;;;;;5121524;28;20413;-70
2020/12/21 03:49:11;;;;;;;13.98;2.10;;;10.90;99.90;;;;;;5121336;27;19911;-70
2020/12/21 03:51:37;;;;;;;6.22;2.10;;;11.00;99.90;;;;;;5120812;28;20081;-70
2020/12/21 03:54:03;;;;;;;;;;;11.00;99.90;;;;;;5121446;27;20383;-70
2020/12/21 03:56:28;;;;;;;5.40;1.58;;;11.10;99.90;;;;;;5120884;28;19918;-70
2020/12/21 03:58:54;;;;;;;10.85;1.80;;;11.10;99.90;;;;;;5120833;28;20034;-70
2020/12/21 04:01:20;;;;;;;;;;;11.00;99.90;;;;;;5121046;28;20050;-70
2020/12/21 04:03:46;;;;;;;8.52;1.88;;;11.10;99.90;;;;;;5121295;28;19900;-70
2020/12/21 04:06:11;;;;;;;5.22;1.40;;;11.10;99.90;;;;;;5120807;28;20024;-70
2020/12/21 04:08:37;;;;;;;;;;;11.10;99.90;;;;;;5120939;28;20031;-70
2020/12/21 04:11:05;;;;;;;8.65;1.50;;;11.10;99.90;;;;;;5120661;28;20382;-70
2020/12/21 04:13:30;;;;;;;11.25;1.77;;;11.20;99.90;;;;;;5120552;28;20150;-71
2020/12/21 04:15:56;;;;;;;5.60;1.40;;;11.30;99.90;;;;;;5120573;28;20107;-70
2020/12/21 04:18:23;;;;;;;;;;;11.20;99.90;;;;;;5120939;28;20024;-70
2020/12/21 04:20:48;;;;;;;5.78;1.60;;;11.30;99.90;;;;;;5121456;27;19908;-71
2020/12/21 04:23:14;;;;;;;4.70;1.58;;;11.20;99.90;;;;;;5132865;27;20046;-71
2020/12/21 04:25:40;;;;;;;6.53;1.42;;;11.30;99.90;;;;;;5120208;28;20062;-71
2020/12/21 04:28:06;;;;;;;5.80;1.60;;;11.20;99.90;;;;;;5120285;28;20052;-71
2020/12/21 04:30:32;;;;;;;5.50;1.13;;;11.20;99.90;;;;;;5118875;28;20407;-71
2020/12/21 04:32:58;;;;;;;4.47;1.17;;;11.30;99.90;;;;;;5120314;28;20055;-71
2020/12/21 04:35:24;;;;;;;7.00;2.40;;;11.20;99.90;;;;;;5120166;28;20020;-71
2020/12/21 04:37:50;;;;;;;4.65;1.38;;;11.30;99.90;;;;;;5120274;27;20052;-71
2020/12/21 04:40:18;;;;;;;4.07;1.00;;;11.20;99.90;;;;;;5120081;28;20066;-70
2020/12/21 04:42:53;;;;;;;3.97;1.00;;;11.30;99.90;;;;;;5119950;27;20062;-71
2020/12/21 04:45:20;;;;;;;8.33;1.10;;;11.20;99.90;;;;;;5119887;28;20027;-70
2020/12/21 04:47:47;;;;;;;7.05;1.15;;;11.30;99.90;;;;;;5119541;28;20293;-70
2020/12/21 04:50:15;;;;;;;2.47;0.93;;;11.40;99.90;;;;;;5119269;28;20020;-70
2020/12/21 04:52:46;;;;;;;3.00;1.00;;;11.20;99.90;;;;;;5119548;28;20388;-70
2020/12/21 04:55:17;;;;;;;2.97;1.65;;;11.30;99.90;;;;;;5119723;28;20423;-70
2020/12/21 04:57:54;;;;;;;2.85;0.75;;;11.40;99.90;;;;;;5119927;28;20015;-71
2020/12/21 05:00:19;;;;;;;;;;;11.40;99.90;;;;;;5120163;28;20470;-70
2020/12/21 05:02:45;;;;;;;3.77;0.83;;;11.30;99.90;;;;;;5119750;28;20645;-70
2020/12/21 05:05:11;;;;;;;3.30;0.80;;;11.30;99.90;;;;;;5119777;28;20024;-70
2020/12/21 05:07:37;;;;;;;5.60;0.85;;;11.50;99.90;;;;;;5119338;27;20019;-70
2020/12/21 05:10:09;;;;;;;3.17;0.80;;;11.50;99.90;;;;;;5119412;28;20391;-70
2020/12/21 05:12:37;;;;;;;2.65;0.80;;;11.40;99.90;;;;;;5119271;27;20020;-70
2020/12/21 05:15:15;;;;;;;5.80;1.10;;;11.40;99.90;;;;;;5118097;28;20487;-70
2020/12/21 05:17:40;;;;;;;2.00;1.15;;;11.40;99.90;;;;;;5119606;28;20054;-70
2020/12/21 05:20:06;;;;;;;5.88;1.05;;;11.40;99.90;;;;;;5119228;28;20036;-70
2020/12/21 05:22:32;;;;;;;4.28;1.05;;;11.50;99.90;;;;;;5114943;28;20056;-70
2020/12/21 05:25:06;;;;;;;4.25;0.80;;;11.50;99.90;;;;;;5098741;28;20020;-70
2020/12/21 05:27:32;;;;;;;1.75;0.75;;;11.50;99.90;;;;;;5115845;28;20410;-70
2020/12/21 05:29:58;;;;;;;8.43;1.00;;;11.50;99.90;;;;;;5119190;28;20019;-70
2020/12/21 05:32:24;;;;;;;6.85;1.13;;;11.50;99.90;;;;;;5118868;28;20132;-70
2020/12/21 05:34:50;;;;;;;4.30;1.88;;;11.50;99.90;;;;;;5118911;28;20055;-70
2020/12/21 05:37:20;;;;;;;3.55;0.85;;;11.60;99.90;;;;;;5118832;28;20031;-70
2020/12/21 05:39:54;;;;;;;3.38;0.95;;;11.50;99.90;;;;;;5117421;28;20015;-70
2020/12/21 05:42:24;;;;;;;4.03;0.88;;;11.60;99.90;;;;;;5118715;28;20028;-70
2020/12/21 05:44:55;;;;;;;3.15;0.75;;;11.60;99.90;;;;;;5119000;28;20016;-70
2020/12/21 05:47:21;;;;;;;3.90;0.98;;;11.60;99.90;;;;;;5118799;28;20076;-70
2020/12/21 05:49:59;;;;;;;3.05;0.70;;;11.60;99.90;;;;;;5118635;28;20426;-70
2020/12/21 05:52:36;;;;;;;4.35;1.00;;;11.70;99.90;;;;;;5118567;28;20020;-70
2020/12/21 05:55:11;;;;;;;3.17;0.70;;;11.70;99.90;;;;;;5118782;28;20398;-70
2020/12/21 05:57:38;;;;;;;5.80;1.38;;;11.70;99.90;;;;;;5118620;28;20024;-70
2020/12/21 06:00:09;;;;;;;2.75;0.73;;;11.70;99.90;;;;;;5118388;28;20016;-71
2020/12/21 06:02:36;;;;;;;1.73;0.60;;;11.70;99.90;;;;;;5118908;28;20088;-70
2020/12/21 06:05:07;;;;;;;1.52;0.60;;;11.70;99.90;;;;;;5118320;28;20386;-70
2020/12/21 06:07:34;;;;;;;1.55;0.80;;;11.80;99.90;;;;;;5118279;28;20027;-70
2020/12/21 06:10:03;;;;;;;2.40;0.52;;;11.70;99.90;;;;;;5118232;28;20027;-71
2020/12/21 06:12:42;;;;;;;3.00;0.70;;;11.70;99.90;;;;;;5104749;28;20528;-70
2020/12/21 06:15:11;;;;;;;2.75;0.60;;;11.80;99.90;;;;;;5106929;28;20023;-71
2020/12/21 06:17:38;;;;;;;1.73;0.73;;;11.90;99.90;;;;;;5118348;28;20040;-70
2020/12/21 06:20:10;;;;;;;0.88;0.82;;;11.90;99.90;;;;;;5116732;28;20510;-71
2020/12/21 06:22:37;;;;;;;1.70;0.60;;;11.90;99.90;;;;;;5130962;27;20034;-70
2020/12/21 06:25:05;;;;;;;1.92;0.68;;;11.90;99.90;;;;;;5118196;28;20032;-71
2020/12/21 06:27:39;;;;;;;2.35;0.88;;;11.90;99.90;;;;;;5104402;28;20027;-71
2020/12/21 06:30:07;;;;;;;2.78;1.00;;;12.10;99.90;;;;;;5118046;28;20030;-71
2020/12/21 06:32:34;;;;;;;3.42;0.60;;;12.00;99.90;;;;;;5117846;28;20020;-71
2020/12/21 06:35:01;;;;;;;2.10;0.60;;;12.00;99.90;;;;;;5117867;28;20023;-70
2020/12/21 06:37:27;;;;;;;3.38;0.80;;;12.10;99.90;;;;;;5117875;28;20407;-71
2020/12/21 06:40:06;;;;;;;2.00;0.60;;;12.10;99.90;;;;;;5117878;28;20024;-71
2020/12/21 06:42:32;;;;;;;2.33;0.68;;;12.20;99.90;;;;;;5117853;28;20069;-71
2020/12/21 06:44:58;;;;;;;1.58;0.50;;;12.20;99.90;;;;;;5117853;28;20026;-70
2020/12/21 06:47:28;;;;;;;3.67;0.50;;;12.20;99.90;;;;;;5117976;28;20019;-71
2020/12/21 06:49:54;;;;;;;0.68;0.40;;;12.30;99.90;;;;;;5117693;28;20043;-71
2020/12/21 06:52:20;;;;;;;3.08;0.60;;;12.20;99.90;;;;;;5117709;28;20023;-71
2020/12/21 06:54:49;;;;;;;2.90;0.82;;;12.20;99.90;;;;;;5117508;28;20027;-71
2020/12/21 06:57:15;;;;;;;3.70;0.73;;;12.40;99.90;;;;;;5117855;28;20064;-70
2020/12/21 06:59:41;;;;;;;1.45;0.50;;;12.40;99.90;;;;;;5117649;28;20024;-71
2020/12/21 07:02:07;;;;;;;0.88;0.60;;;12.30;99.90;;;;;;5118009;28;20035;-71
2020/12/21 07:04:34;;;;;;;0.45;0.40;;;12.40;99.90;;;;;;5117686;28;20056;-70
2020/12/21 07:07:02;;;;;;;5.15;0.60;;;12.40;99.90;;;;;;5117817;28;20027;-70
2020/12/21 07:09:30;;;;;;;2.35;0.68;;;12.40;99.90;;;;;;5116133;28;20051;-71
2020/12/21 07:12:01;;;;;;;2.30;0.50;;;12.50;99.90;;;;;;5118835;28;20057;-71
2020/12/21 07:14:28;;;;;;;1.20;0.43;;;12.50;99.90;;;;;;5120266;28;20083;-71
2020/12/21 07:17:05;;;;;;;1.20;0.45;;;12.50;99.90;;;;;;5120501;28;20015;-71
2020/12/21 07:19:36;;;;;;;1.05;0.60;;;12.60;99.90;;;;;;5121421;28;20043;-71
2020/12/21 07:22:04;;;;;;;5.47;1.75;;;12.70;99.90;;;;;;5108946;28;20016;-71
2020/12/21 07:24:30;;;;;;;4.35;0.55;;;12.60;99.90;;;;;;5100765;28;20027;-71
2020/12/21 07:26:56;;;;;;;6.28;0.60;;;12.70;99.90;;;;;;5113578;28;20023;-71
2020/12/21 07:29:22;;;;;;;5.57;0.60;;;12.80;99.90;;;;;;5121229;28;20406;-71
2020/12/21 07:31:49;;;;;;;5.10;0.60;;;12.70;99.90;;;;;;5121447;28;20150;-71
2020/12/21 07:34:15;;;;;;;1.30;0.65;;;12.80;99.90;;;;;;5121174;28;20031;-71
2020/12/21 07:36:42;;;;;;;1.85;0.60;;;12.80;99.90;;;;;;5121420;28;20387;-71
2020/12/21 07:39:18;;;;;;;3.05;0.60;;;12.80;99.90;;;;;;5120986;28;20023;-71
2020/12/21 07:41:51;;;;;;;1.55;0.63;;;12.90;99.90;;;;;;5121271;28;20119;-71
2020/12/21 07:44:31;;;;;;;4.28;0.75;;;12.90;99.90;;;;;;5121238;28;20027;-71
2020/12/21 07:47:14;;;;;;;1.15;0.70;;;12.90;99.90;;;;;;5121004;28;20119;-71
2020/12/21 07:49:40;;;;;;;0.85;0.50;;;13.00;99.90;;;;;;5121189;28;20034;-71
2020/12/21 07:52:07;;;;;;;2.72;0.63;;;13.10;99.90;;;;;;5119437;28;20038;-71
2020/12/21 07:54:40;;;;;;;2.55;0.73;;;13.10;99.90;;;;;;5120881;28;20020;-71
2020/12/21 07:57:08;;;;;;;1.83;1.15;;;13.10;99.90;;;;;;5120787;28;20035;-71
2020/12/21 07:59:34;;;;;;;2.17;0.50;;;13.20;99.90;;;;;;5121010;28;20023;-71
2020/12/21 08:02:02;;;;;;;2.90;0.50;;;13.10;99.90;;;;;;5120804;28;20027;-71
2020/12/21 08:04:28;;;;;;;1.25;0.45;;;13.20;99.90;;;;;;5120938;28;20020;-71
2020/12/21 08:07:10;;;;;;;3.55;0.82;;;13.20;99.90;;;;;;5119513;28;20023;-71
2020/12/21 08:09:40;;;;;;;7.22;0.80;;;13.20;99.90;;;;;;5120366;28;20032;-71
2020/12/21 08:12:12;;;;;;;0.57;0.45;;;13.20;99.90;;;;;;5120643;28;20027;-72
2020/12/21 08:14:39;;;;;;;1.08;0.40;;;13.20;99.90;;;;;;5113943;28;20045;-71
2020/12/21 08:17:15;;;;;;;4.00;0.60;;;13.20;99.90;;;;;;5110685;27;20395;-71
2020/12/21 08:19:54;;;;;;;1.48;0.68;;;13.30;99.90;;;;;;5105376;27;20522;-71
2020/12/21 08:22:20;;;;;;;0.55;0.43;;;13.30;99.90;;;;;;5113722;27;20023;-71
2020/12/21 08:24:58;;;;;;;1.23;0.70;;;13.30;99.90;;;;;;5119309;28;20061;-71
2020/12/21 08:27:24;;;;;;;3.08;0.80;;;13.40;99.90;;;;;;5120206;28;20027;-71
2020/12/21 08:29:50;;;;;;;5.95;0.93;;;13.30;99.90;;;;;;5120396;28;20023;-71
2020/12/21 08:32:16;;;;;;;1.30;0.70;;;13.30;99.90;;;;;;5126430;27;20034;-71
2020/12/21 08:34:43;;;;;;;5.32;0.85;;;13.30;99.90;;;;;;5098436;28;20028;-71
2020/12/21 08:37:09;;;;;;;3.60;1.10;;;13.30;99.90;;;;;;5098904;28;20426;-71
2020/12/21 08:39:35;;;;;;;3.03;0.73;;;13.40;99.90;;;;;;5099167;28;20484;-71
2020/12/21 08:42:01;;;;;;;4.05;0.70;;;13.30;99.90;;;;;;5099076;28;20054;-71
2020/12/21 08:44:28;;;;;;;5.80;0.70;;;13.40;99.90;;;;;;5098834;28;20050;-71
2020/12/21 08:46:56;;;;;;;5.38;0.73;;;13.30;99.90;;;;;;5098879;28;20083;-71
2020/12/21 08:49:23;;;;;;;3.50;0.60;;;13.40;99.90;;;;;;5098908;28;20016;-70
2020/12/21 08:51:49;;;;;;;4.28;1.35;;;13.40;99.90;;;;;;5098443;28;20030;-70
2020/12/21 08:54:16;;;;;;;3.83;0.88;;;13.40;99.90;;;;;;5098400;28;20047;-70
2020/12/21 08:56:56;;;;;;;5.25;0.55;;;13.40;99.90;;;;;;5097290;28;20040;-71
2020/12/21 08:59:23;;;;;;;0.73;0.43;;;13.50;99.90;;;;;;5098572;28;20016;-71
2020/12/21 09:01:49;;;;;;;4.45;0.93;;;13.40;99.90;;;;;;5098486;28;20031;-71
2020/12/21 09:04:15;;;;;;;2.53;0.60;;;13.50;99.90;;;;;;5098485;28;20020;-71
2020/12/21 09:06:41;;;;;;;6.50;1.15;;;13.40;99.90;;;;;;5098366;28;20028;-70
2020/12/21 09:09:07;;;;;;;3.35;1.05;;;13.50;99.90;;;;;;5098260;28;20020;-71
2020/12/21 09:11:33;;;;;;;4.18;0.80;;;13.40;99.90;;;;;;5098296;28;20028;-71
2020/12/21 09:13:59;;;;;;;3.20;0.63;;;13.50;99.90;;;;;;5098199;28;20422;-72
2020/12/21 09:16:27;;;;;;;2.88;0.57;;;13.40;99.90;;;;;;5098183;28;20034;-71
2020/12/21 09:18:55;;;;;;;2.65;0.47;;;13.50;99.90;;;;;;5098199;28;20126;-72
2020/12/21 09:21:27;;;;;;;3.17;0.60;;;13.60;99.90;;;;;;5103663;27;20016;-72
2020/12/21 09:23:54;;;;;;;2.67;0.50;;;13.60;99.90;;;;;;5118449;28;20106;-72
2020/12/21 09:26:21;;;;;;;1.55;0.77;;;13.70;99.90;;;;;;5118423;28;20023;-72
2020/12/21 09:28:48;;;;;;;4.38;0.70;;;13.60;99.90;;;;;;5118383;28;20020;-72
2020/12/21 09:31:15;;;;;;;1.95;0.80;;;13.70;99.90;;;;;;5118395;28;20027;-71
2020/12/21 09:33:41;;;;;;;3.13;1.05;;;13.70;99.90;;;;;;5108835;28;20032;-72
2020/12/21 09:36:08;;;;;;;5.55;1.55;;;13.60;99.90;;;;;;5107973;27;20019;-72
2020/12/21 09:38:34;;;;;;;4.50;1.35;;;13.60;99.90;;;;;;5116669;28;20049;-70
2020/12/21 09:41:03;;;;;;;1.98;0.75;;;13.60;99.90;;;;;;5116665;28;20024;-69
2020/12/21 09:43:29;;;;;;;6.93;1.25;;;14.30;99.90;;;;;;5116271;28;20094;-70
2020/12/21 09:45:58;;;;;;;3.05;0.60;;;13.70;99.90;;;;;;5117066;28;20058;-75
2020/12/21 09:48:24;;;;;;;4.18;1.15;;;13.60;99.90;;;;;;5101883;28;20103;-74
2020/12/21 09:50:50;;;;;;;10.30;2.83;;;13.70;99.90;;;;;;5096389;28;20063;-73
2020/12/21 09:53:16;;;;;;;4.78;1.60;;;13.70;99.90;;;;;;5096105;28;20027;-73
2020/12/21 09:55:45;;;;;;;6.13;1.80;;;13.70;99.90;;;;;;5097730;28;20020;-73
2020/12/21 09:58:11;;;;;;;6.45;2.05;;;13.80;99.90;;;;;;5097509;28;20020;-73
2020/12/21 10:00:37;;;;;;;7.32;2.40;;;13.90;99.90;;;;;;5110491;28;20080;-69
2020/12/21 10:03:03;;;;;;;5.35;1.83;;;13.80;99.90;;;;;;5117598;28;20024;-71
2020/12/21 10:05:29;;;;;;;5.20;2.85;;;13.80;99.90;;;;;;5108040;28;20495;-71
2020/12/21 10:07:55;;;;;;;6.78;2.72;;;13.80;99.90;;;;;;5095645;28;20093;-72
2020/12/21 10:10:21;;;;;;;5.85;2.00;;;13.70;99.90;;;;;;5095946;28;20067;-69
2020/12/21 10:12:46;;;;;;;4.60;1.48;;;13.80;99.90;;;;;;5096910;28;20032;-61
2020/12/21 10:15:12;;;;;;;7.05;1.48;;;13.80;99.90;;;;;;5097232;28;20028;-69
2020/12/21 10:17:38;;;;;;;8.32;1.60;;;13.80;99.90;;;;;;5097090;28;20020;-70
2020/12/21 10:20:05;;;;;;;4.22;1.30;;;13.80;99.90;;;;;;5095884;28;20048;-71
2020/12/21 10:22:31;;;;;;;4.10;1.90;;;13.80;99.90;;;;;;5110982;28;20503;-72
2020/12/21 10:24:57;;;;;;;3.55;0.77;;;13.90;99.90;;;;;;5116079;28;20077;-73
2020/12/21 10:27:23;;;;;;;2.28;0.68;;;13.90;99.90;;;;;;5116048;28;20024;-72
2020/12/21 10:29:50;;;;;;;6.90;0.90;;;13.90;99.90;;;;;;5117572;28;20024;-73
2020/12/21 10:32:16;;;;;;;8.73;1.60;;;13.80;99.90;;;;;;5116028;28;20042;-73
2020/12/21 10:34:42;;;;;;;6.38;1.45;;;13.90;99.90;;;;;;5115979;28;20026;-73
2020/12/21 10:37:08;;;;;;;6.28;1.15;;;13.90;99.90;;;;;;5115786;28;20023;-73
2020/12/21 10:39:34;;;;;;;6.72;1.20;;;14.00;99.90;;;;;;5115999;28;20056;-73
2020/12/21 10:42:05;;;;;;;10.15;1.83;;;14.00;99.90;;;;;;5117061;28;20090;-73
2020/12/21 10:44:30;;;;;;;11.95;1.65;;;13.90;99.90;;;;;;5117113;28;20024;-73
2020/12/21 10:46:59;;;;;;;10.07;2.35;;;13.90;99.90;;;;;;5116122;28;20028;-73
2020/12/21 10:49:26;;;;;;;12.65;2.00;;;13.90;99.90;;;;;;5117379;28;20081;-73
2020/12/21 10:51:52;;;;;;;13.57;2.13;;;13.90;99.90;;;;;;5116812;28;20019;-70
2020/12/21 10:54:18;;;;;;;11.55;2.60;;;13.90;99.90;;;;;;5105189;28;20551;-77
2020/12/21 10:56:44;;;;;;;16.65;3.60;;;13.80;99.90;;;;;;5095534;28;20050;-60
2020/12/21 10:59:09;;;;;;;19.45;2.92;;;13.90;99.90;;;;;;5096800;28;20020;-69
2020/12/21 11:01:35;;;;;;;8.73;2.83;;;13.90;99.90;;;;;;5096576;28;20528;-70
2020/12/21 11:04:01;;;;;;;12.88;2.95;;;13.80;99.90;;;;;;5096874;28;20069;-70
2020/12/21 11:06:27;;;;;;;15.77;3.20;;;13.90;99.90;;;;;;5096571;28;20036;-70
2020/12/21 11:08:54;;;;;;;10.90;2.90;;;13.90;99.90;;;;;;5098258;28;20028;-66
2020/12/21 11:11:31;;;;;;;11.48;2.13;;;14.00;99.90;;;;;;5116626;28;20373;-70
2020/12/21 11:13:59;;;;;;;10.02;2.50;;;13.90;99.90;;;;;;5116881;28;20016;-70
2020/12/21 11:16:25;;;;;;;11.18;2.40;;;14.00;99.90;;;;;;5116809;28;20022;-69
2020/12/21 11:18:51;;;;;;;8.43;1.73;;;14.10;99.90;;;;;;5116838;28;20114;-70
2020/12/21 11:21:17;;;;;;;7.97;1.70;;;14.00;99.90;;;;;;5110506;28;20028;-70
2020/12/21 11:23:43;;;;;;;10.18;2.10;;;14.00;99.90;;;;;;5096150;28;20024;-71
2020/12/21 11:26:09;;;;;;;7.82;1.70;;;14.00;99.90;;;;;;5101950;28;20098;-70
2020/12/21 11:28:35;;;;;;;6.90;3.10;;;14.00;99.90;;;;;;5117003;28;20032;-69
2020/12/21 11:31:02;;;;;;;13.23;2.30;;;14.00;99.90;;;;;;5097294;28;20024;-69
2020/12/21 11:33:28;;;;;;;9.15;3.17;;;14.00;99.90;;;;;;5096421;28;20039;-69
2020/12/21 11:35:55;;;;;;;8.80;2.30;;;14.00;99.90;;;;;;5096217;28;20404;-69
2020/12/21 11:38:21;;;;;;;12.77;2.25;;;14.20;99.90;;;;;;5096240;28;20056;-69
2020/12/21 11:40:48;;;;;;;8.40;2.08;;;14.10;99.90;;;;;;5096058;28;20065;-68
2020/12/21 11:43:14;;;;;;;10.98;2.63;;;14.00;99.90;;;;;;5096030;28;20480;-70
2020/12/21 11:45:44;;;;;;;5.93;1.48;;;14.10;99.90;;;;;;5096022;28;20039;-68
2020/12/21 11:48:10;;;;;;;8.43;2.70;;;14.10;99.90;;;;;;5096084;28;20024;-68
2020/12/21 11:50:36;;;;;;;11.07;1.88;;;14.10;99.90;;;;;;5096212;28;20533;-68
2020/12/21 11:53:02;;;;;;;11.43;2.00;;;14.20;99.90;;;;;;5096125;28;20024;-69
2020/12/21 11:55:28;;;;;;;11.73;1.90;;;14.10;99.90;;;;;;5096055;28;20021;-68
2020/12/21 11:57:54;;;;;;;7.50;2.33;;;14.00;99.90;;;;;;5095789;28;20069;-68
2020/12/21 12:00:20;;;;;;;8.32;2.95;;;14.00;99.90;;;;;;5099740;28;20020;-68
2020/12/21 12:02:46;;;;;;;9.27;1.75;;;14.00;99.90;;;;;;5099741;28;20024;-69
2020/12/21 12:05:12;;;;;;;7.68;2.28;;;13.90;99.90;;;;;;5099947;28;20031;-69
2020/12/21 12:07:39;;;;;;;8.95;1.95;;;13.90;99.90;;;;;;5099441;28;20050;-69
2020/12/21 12:10:06;;;;;;;8.73;2.13;;;13.80;99.90;;;;;;5099755;28;20020;-69
2020/12/21 12:12:32;;;;;;;5.68;1.60;;;13.90;99.90;;;;;;5099479;28;20028;-69
2020/12/21 12:14:58;;;;;;;7.28;1.60;;;13.90;99.90;;;;;;5107719;28;20012;-69
2020/12/21 12:17:24;;;;;;;11.18;2.15;;;13.90;99.90;;;;;;5105455;28;20032;-69
2020/12/21 12:19:50;;;;;;;10.38;1.98;;;13.90;99.90;;;;;;5099358;28;20044;-69
2020/12/21 12:22:16;;;;;;;5.88;1.70;;;13.90;99.90;;;;;;5125007;27;20395;-69
2020/12/21 12:24:42;;;;;;;5.68;1.17;;;13.90;99.90;;;;;;5119822;28;20072;-69
2020/12/21 12:27:09;;;;;;;4.57;1.58;;;13.80;99.90;;;;;;5119490;28;20401;-69
2020/12/21 12:29:34;;;;;;;7.72;2.10;;;13.80;99.90;;;;;;5119758;28;20027;-69
2020/12/21 12:32:01;;;;;;;6.00;1.33;;;13.90;99.90;;;;;;5118053;28;20602;-70
2020/12/21 12:34:26;;;;;;;6.45;1.58;;;13.90;99.90;;;;;;5119664;28;20028;-69
2020/12/21 12:36:52;;;;;;;7.90;1.38;;;13.90;99.90;;;;;;5119437;28;20035;-70
2020/12/21 12:39:18;;;;;;;4.95;1.63;;;13.90;99.90;;;;;;5119307;28;20020;-69
2020/12/21 12:41:44;;;;;;;6.55;1.88;;;14.00;99.90;;;;;;5119358;28;20034;-69
2020/12/21 12:44:10;;;;;;;7.28;1.20;;;14.00;99.90;;;;;;5119371;28;20511;-70
2020/12/21 12:46:37;;;;;;;4.95;1.58;;;14.10;99.90;;;;;;5119458;28;20054;-68
2020/12/21 12:49:05;;;;;;;5.40;1.45;;;14.00;99.90;;;;;;5119567;28;20495;-69